createdAt,value
2023-04-02T00:01:02.106Z,90433.50
2023-04-02T00:03:44.490Z,90447.28
2023-04-02T00:06:30.267Z,90445.66
2023-04-02T00:09:04.716Z,90416.56
2023-04-02T00:11:37.533Z,90438.41
2023-04-02T00:14:16.730Z,90419.75
2023-04-02T00:16:44.406Z,90441.50
2023-04-02T00:19:24.504Z,90431.69
2023-04-02T00:21:52.460Z,90429.31
2023-04-02T00:24:22.002Z,90442.94
2023-04-02T00:26:53.432Z,90442.00
2023-04-02T00:29:20.716Z,90438.81
2023-04-02T00:31:52.590Z,90454.38
2023-04-02T00:34:27.445Z,90445.59
2023-04-02T00:36:54.988Z,90457.22
2023-04-02T00:39:28.549Z,90426.00
2023-04-02T00:42:06.417Z,90448.06
2023-04-02T00:44:37.995Z,90443.22
2023-04-02T00:47:17.243Z,90427.00
2023-04-02T00:49:44.300Z,90436.00
2023-04-02T00:52:18.575Z,90441.84
2023-04-02T00:54:50.999Z,90433.63
2023-04-02T00:57:25.630Z,90449.56
2023-04-02T01:00:20.128Z,90459.00
2023-04-02T01:03:13.172Z,90456.34
2023-04-02T01:05:42.598Z,90464.84
2023-04-02T01:08:31.423Z,90461.91
2023-04-02T01:11:13.909Z,90459.88
2023-04-02T01:14:12.941Z,90454.63
2023-04-02T01:17:04.296Z,90455.28
2023-04-02T01:19:45.944Z,90447.66
2023-04-02T01:22:51.145Z,90456.63
2023-04-02T01:25:40.452Z,90448.41
2023-04-02T01:28:10.723Z,90451.56
2023-04-02T01:30:37.758Z,90443.97
2023-04-02T01:33:07.274Z,90439.16
2023-04-02T01:35:38.981Z,90447.59
2023-04-02T01:38:40.656Z,90441.47
2023-04-02T01:41:33.592Z,90440.16
2023-04-02T01:44:08.257Z,90446.22
2023-04-02T01:46:40.761Z,90449.53
2023-04-02T01:49:26.005Z,90450.00
2023-04-02T01:51:56.721Z,90448.47
2023-04-02T01:54:26.000Z,90444.66
2023-04-02T01:56:52.950Z,90439.88
2023-04-02T01:59:22.474Z,90441.09
2023-04-02T02:01:54.294Z,90451.38
2023-04-02T02:04:21.040Z,90439.09
2023-04-02T02:06:48.324Z,90448.31
2023-04-02T02:09:23.700Z,90441.31
2023-04-02T02:11:51.542Z,90445.13
2023-04-02T02:14:22.134Z,90449.69
2023-04-02T02:16:50.185Z,90449.22
2023-04-02T02:19:35.733Z,90447.78
2023-04-02T02:22:29.848Z,90437.88
2023-04-02T02:24:58.803Z,90444.94
2023-04-02T02:27:28.764Z,90431.50
2023-04-02T02:30:17.514Z,90438.94
2023-04-02T02:32:53.146Z,90437.84
2023-04-02T02:35:32.287Z,90434.84
2023-04-02T02:38:26.721Z,90442.28
2023-04-02T02:40:57.603Z,90444.66
2023-04-02T02:43:26.810Z,90435.38
2023-04-02T02:45:55.855Z,90441.09
2023-04-02T02:48:32.133Z,90436.84
2023-04-02T02:51:00.455Z,90430.53
2023-04-02T02:53:31.354Z,90437.84
2023-04-02T02:56:01.534Z,90441.81
2023-04-02T02:58:32.458Z,90456.69
2023-04-02T03:00:59.719Z,90444.94
2023-04-02T03:03:29.206Z,90456.00
2023-04-02T03:06:02.399Z,90444.22
2023-04-02T03:08:34.798Z,90448.13
2023-04-02T03:11:26.617Z,90451.34
2023-04-02T03:14:00.987Z,90452.66
2023-04-02T03:16:43.985Z,90466.22
2023-04-02T03:19:40.297Z,90469.44
2023-04-02T03:22:15.886Z,90476.56
2023-04-02T03:25:30.989Z,90476.47
2023-04-02T03:28:06.516Z,90487.78
2023-04-02T03:30:43.097Z,90472.03
2023-04-02T03:33:17.334Z,90496.97
2023-04-02T03:35:57.528Z,90495.50
2023-04-02T03:38:40.777Z,90507.34
2023-04-02T03:41:34.281Z,90508.41
2023-04-02T03:44:21.641Z,90508.56
2023-04-02T03:46:59.092Z,90479.34
2023-04-02T03:49:38.492Z,90510.31
2023-04-02T03:52:20.171Z,90516.31
2023-04-02T03:54:53.812Z,90521.13
2023-04-02T03:57:34.200Z,90521.94
2023-04-02T04:00:30.986Z,90535.88
2023-04-02T04:03:06.164Z,90517.03
2023-04-02T04:05:38.796Z,90527.19
2023-04-02T04:08:14.015Z,90540.66
2023-04-02T04:10:42.201Z,90540.53
2023-04-02T04:13:15.183Z,90536.09
2023-04-02T04:16:08.003Z,90546.53
2023-04-02T04:18:47.891Z,90556.56
2023-04-02T04:21:31.409Z,90559.44
2023-04-02T04:24:06.043Z,90557.78
2023-04-02T04:26:49.581Z,90569.41
2023-04-02T04:29:54.267Z,90567.56
2023-04-02T04:32:50.189Z,90568.25
2023-04-02T04:35:26.949Z,90562.28
2023-04-02T04:38:03.927Z,90561.63
2023-04-02T04:40:35.001Z,90558.06
2023-04-02T04:43:07.033Z,90557.47
2023-04-02T04:45:56.319Z,90553.28
2023-04-02T04:48:27.526Z,90553.22
2023-04-02T04:50:59.487Z,90553.22
2023-04-02T04:53:28.543Z,90542.47
2023-04-02T04:56:06.059Z,90553.03
2023-04-02T04:58:49.081Z,90547.69
2023-04-02T05:01:22.801Z,90548.38
2023-04-02T05:04:12.930Z,90545.44
2023-04-02T05:06:44.922Z,90552.53
2023-04-02T05:09:36.664Z,90551.69
2023-04-02T05:12:32.620Z,90553.44
2023-04-02T05:15:26.609Z,90553.19
2023-04-02T05:18:16.174Z,90557.72
2023-04-02T05:21:00.733Z,90560.69
2023-04-02T05:23:30.687Z,90567.59
2023-04-02T05:26:09.833Z,90566.75
2023-04-02T05:28:48.569Z,90567.63
2023-04-02T05:31:36.353Z,90564.00
2023-04-02T05:34:03.401Z,90579.03
2023-04-02T05:36:31.443Z,90577.72
2023-04-02T05:38:59.866Z,90571.03
2023-04-02T05:41:29.029Z,90578.81
2023-04-02T05:44:05.735Z,90570.09
2023-04-02T05:46:37.996Z,90572.19
2023-04-02T05:49:10.622Z,90566.47
2023-04-02T05:51:43.702Z,90563.13
2023-04-02T05:54:23.455Z,90562.47
2023-04-02T05:56:56.384Z,90571.38
2023-04-02T05:59:37.808Z,90558.22
2023-04-02T06:02:22.379Z,90571.84
2023-04-02T06:05:07.436Z,90565.72
2023-04-02T06:08:29.476Z,90562.72
2023-04-02T06:11:01.761Z,90558.75
2023-04-02T06:13:28.939Z,90563.72
2023-04-02T06:15:56.310Z,90552.34
2023-04-02T06:18:30.360Z,90559.25
2023-04-02T06:20:58.552Z,90557.78
2023-04-02T06:23:49.679Z,90566.53
2023-04-02T06:26:51.564Z,90573.06
2023-04-02T06:29:26.901Z,90584.38
2023-04-02T06:32:00.379Z,90584.78
2023-04-02T06:34:29.393Z,90580.28
2023-04-02T06:37:04.049Z,90583.38
2023-04-02T06:39:31.273Z,90578.28
2023-04-02T06:42:13.609Z,90585.84
2023-04-02T06:44:41.095Z,90562.16
2023-04-02T06:47:37.470Z,90587.88
2023-04-02T06:50:33.630Z,90591.34
2023-04-02T06:53:06.348Z,90582.88
2023-04-02T06:55:44.337Z,90597.13
2023-04-02T06:58:11.111Z,90596.00
2023-04-02T07:00:46.645Z,90590.41
2023-04-02T07:03:30.178Z,90592.66
2023-04-02T07:05:58.382Z,90581.03
2023-04-02T07:08:25.266Z,90578.78
2023-04-02T07:10:52.371Z,90592.63
2023-04-02T07:15:54.020Z,90596.34
2023-04-02T07:18:29.141Z,90596.00
2023-04-02T07:20:56.775Z,90604.50
2023-04-02T07:23:23.772Z,90597.06
2023-04-02T07:25:52.087Z,90586.34
2023-04-02T07:28:21.391Z,90590.56
2023-04-02T07:30:49.239Z,90597.28
2023-04-02T07:33:18.999Z,90587.06
2023-04-02T07:35:46.272Z,90583.31
2023-04-02T07:38:12.980Z,90590.38
2023-04-02T07:40:39.975Z,90592.84
2023-04-02T07:43:07.467Z,90585.84
2023-04-02T07:45:34.786Z,90591.16
2023-04-02T07:48:10.592Z,90586.75
2023-04-02T07:50:37.312Z,90588.66
2023-04-02T07:53:04.461Z,90583.25
2023-04-02T07:55:31.480Z,90581.72
2023-04-02T07:57:59.783Z,90572.47
2023-04-02T08:00:28.904Z,90588.69
2023-04-02T08:02:56.425Z,90567.78
2023-04-02T08:05:23.360Z,90590.25
2023-04-02T08:07:54.882Z,90585.06
2023-04-02T08:10:21.811Z,90582.19
2023-04-02T08:12:49.589Z,90585.94
2023-04-02T08:15:17.259Z,90575.16
2023-04-02T08:17:44.561Z,90575.06
2023-04-02T08:20:20.639Z,90574.66
2023-04-02T08:22:48.449Z,90566.28
2023-04-02T08:25:15.505Z,90571.66
2023-04-02T08:27:42.289Z,90567.41
2023-04-02T08:30:12.620Z,90561.50
2023-04-02T08:32:41.230Z,90569.31
2023-04-02T08:35:10.138Z,90559.03
2023-04-02T08:37:37.359Z,90567.97
2023-04-02T08:40:07.229Z,90566.97
2023-04-02T08:42:34.003Z,90564.28
2023-04-02T08:45:20.864Z,90569.03
2023-04-02T08:47:55.527Z,90561.03
2023-04-02T08:50:25.045Z,90567.72
2023-04-02T08:52:52.297Z,90565.59
2023-04-02T08:55:29.939Z,90565.50
2023-04-02T08:58:15.422Z,90568.59
2023-04-02T09:00:47.157Z,90565.69
2023-04-02T09:03:21.440Z,90563.16
2023-04-02T09:05:50.974Z,90545.88
2023-04-02T09:08:20.612Z,90550.72
2023-04-02T09:11:06.057Z,90576.72
2023-04-02T09:13:37.741Z,90575.56
2023-04-02T09:16:04.423Z,90540.47
2023-04-02T09:18:34.228Z,90583.03
2023-04-02T09:21:20.993Z,90560.09
2023-04-02T09:23:48.818Z,90569.59
2023-04-02T09:26:30.700Z,90568.69
2023-04-02T09:29:12.827Z,90572.63
2023-04-02T09:31:58.525Z,90550.78
2023-04-02T09:34:30.820Z,90555.06
2023-04-02T09:37:07.368Z,90544.03
2023-04-02T09:39:35.635Z,90548.59
2023-04-02T09:42:08.523Z,90542.16
2023-04-02T09:44:35.678Z,90544.50
2023-04-02T09:47:05.863Z,90549.16
2023-04-02T09:49:35.741Z,90540.78
2023-04-02T09:52:09.097Z,90542.19
2023-04-02T09:54:41.809Z,90538.50
2023-04-02T09:57:27.193Z,90542.72
2023-04-02T10:00:25.300Z,90540.19
2023-04-02T10:03:32.910Z,90540.16
2023-04-02T10:06:12.130Z,90531.50
2023-04-02T10:08:42.481Z,90531.97
2023-04-02T10:11:14.183Z,90532.41
2023-04-02T10:13:57.466Z,90521.81
2023-04-02T10:16:39.149Z,90521.41
2023-04-02T10:19:15.757Z,90540.06
2023-04-02T10:21:45.815Z,90524.91
2023-04-02T10:24:15.984Z,90511.00
2023-04-02T10:26:59.158Z,90505.78
2023-04-02T10:29:49.168Z,90507.47
2023-04-02T10:32:25.679Z,90521.47
2023-04-02T10:35:03.666Z,90520.94
2023-04-02T10:37:46.149Z,90518.41
2023-04-02T10:40:24.840Z,90512.09
2023-04-02T10:43:48.724Z,90510.56
2023-04-02T10:46:57.645Z,90492.59
2023-04-02T10:49:36.233Z,90500.72
2023-04-02T10:52:17.079Z,90492.78
2023-04-02T10:54:47.055Z,90496.06
2023-04-02T10:57:22.412Z,90494.00
2023-04-02T11:00:11.413Z,90500.84
2023-04-02T11:02:38.184Z,90504.81
2023-04-02T11:05:31.714Z,90474.19
2023-04-02T11:08:27.658Z,90500.19
2023-04-02T11:10:54.272Z,90493.91
2023-04-02T11:13:36.180Z,90497.63
2023-04-02T11:16:03.871Z,90489.59
2023-04-02T11:18:36.070Z,90485.09
2023-04-02T11:21:57.948Z,90461.09
2023-04-02T11:24:46.084Z,90474.53
2023-04-02T11:27:14.754Z,90490.19
2023-04-02T11:29:52.568Z,90498.13
2023-04-02T11:32:24.139Z,90487.69
2023-04-02T11:35:06.526Z,90498.00
2023-04-02T11:37:35.795Z,90484.50
2023-04-02T11:40:11.857Z,90495.97
2023-04-02T11:42:45.051Z,90491.31
2023-04-02T11:45:23.770Z,90483.25
2023-04-02T11:48:03.932Z,90489.59
2023-04-02T11:50:32.102Z,90510.19
2023-04-02T11:53:21.678Z,90489.75
2023-04-02T11:55:58.704Z,90501.13
2023-04-02T11:58:43.764Z,90500.81
2023-04-02T12:01:30.265Z,90495.63
2023-04-02T12:04:34.570Z,90493.41
2023-04-02T12:07:20.649Z,90504.03
2023-04-02T12:09:52.526Z,90493.81
2023-04-02T12:12:32.060Z,90497.63
2023-04-02T12:15:00.599Z,90494.06
2023-04-02T12:17:38.966Z,90494.06
2023-04-02T12:20:09.672Z,90485.69
2023-04-02T12:22:41.234Z,90484.97
2023-04-02T12:25:32.758Z,90490.97
2023-04-02T12:28:18.764Z,90490.63
2023-04-02T12:30:51.168Z,90491.69
2023-04-02T12:33:37.392Z,90487.44
2023-04-02T12:36:05.762Z,90488.94
2023-04-02T12:38:43.837Z,90487.94
2023-04-02T12:41:26.527Z,90493.34
2023-04-02T12:44:18.100Z,90476.03
2023-04-02T12:46:46.530Z,90477.25
2023-04-02T12:49:28.458Z,90486.91
2023-04-02T12:51:56.432Z,90479.09
2023-04-02T12:54:24.026Z,90454.13
2023-04-02T12:56:51.413Z,90471.03
2023-04-02T12:59:31.357Z,90463.22
2023-04-02T13:02:00.733Z,90492.06
2023-04-02T13:04:27.834Z,90491.69
2023-04-02T13:06:55.910Z,90487.63
2023-04-02T13:09:34.339Z,90477.78
2023-04-02T13:12:02.482Z,90480.47
2023-04-02T13:14:30.418Z,90471.19
2023-04-02T13:16:57.320Z,90470.53
2023-04-02T13:19:27.478Z,90466.63
2023-04-02T13:21:55.862Z,90468.00
2023-04-02T13:24:31.587Z,90466.28
2023-04-02T13:27:03.077Z,90462.47
2023-04-02T13:29:35.106Z,90468.22
2023-04-02T13:32:09.629Z,90461.19
2023-04-02T13:34:36.375Z,90465.44
2023-04-02T13:37:03.250Z,90469.16
2023-04-02T13:39:30.559Z,90463.22
2023-04-02T13:41:59.792Z,90466.03
2023-04-02T13:44:32.032Z,90463.88
2023-04-02T13:46:59.909Z,90458.78
2023-04-02T13:49:27.641Z,90452.56
2023-04-02T13:52:00.019Z,90452.88
2023-04-02T13:54:38.729Z,90450.97
2023-04-02T13:57:06.335Z,90456.38
2023-04-02T13:59:33.129Z,90457.19
2023-04-02T14:02:09.204Z,90459.88
2023-04-02T14:04:44.837Z,90455.63
2023-04-02T14:07:26.104Z,90461.28
2023-04-02T14:09:53.959Z,90458.75
2023-04-02T14:12:35.833Z,90453.50
2023-04-02T14:15:05.421Z,90452.97
2023-04-02T14:17:53.559Z,90454.38
2023-04-02T14:20:35.174Z,90444.06
2023-04-02T14:23:20.514Z,90454.97
2023-04-02T14:25:47.052Z,90449.25
2023-04-02T14:28:26.959Z,90443.25
2023-04-02T14:31:34.273Z,90458.25
2023-04-02T14:34:38.444Z,90450.91
2023-04-02T14:37:30.990Z,90454.31
2023-04-02T14:40:36.966Z,90458.91
2023-04-02T14:43:27.657Z,90450.31
2023-04-02T14:46:01.732Z,90459.88
2023-04-02T14:48:50.430Z,90456.50
2023-04-02T14:51:36.374Z,90464.44
2023-04-02T14:54:13.545Z,90465.34
2023-04-02T14:57:11.574Z,90467.94
2023-04-02T14:59:59.150Z,90477.81
2023-04-02T15:02:45.070Z,90472.13
2023-04-02T15:05:21.358Z,90477.34
2023-04-02T15:08:00.942Z,90477.59
2023-04-02T15:10:45.881Z,90484.88
2023-04-02T15:13:20.099Z,90484.44
2023-04-02T15:15:52.622Z,90484.56
2023-04-02T15:18:19.356Z,90496.66
2023-04-02T15:20:54.753Z,90503.25
2023-04-02T15:23:51.720Z,90505.53
2023-04-02T15:26:33.959Z,90514.31
2023-04-02T15:29:28.410Z,90510.47
2023-04-02T15:32:06.040Z,90509.59
2023-04-02T15:34:51.716Z,90517.63
2023-04-02T15:37:31.231Z,90515.41
2023-04-02T15:40:35.640Z,90525.59
2023-04-02T15:43:38.255Z,90521.47
2023-04-02T15:46:22.337Z,90525.00
2023-04-02T15:49:12.945Z,90512.41
2023-04-02T15:51:59.542Z,90515.84
2023-04-02T15:54:41.259Z,90523.97
2023-04-02T15:57:26.867Z,90525.84
2023-04-02T16:00:28.011Z,90520.66
2023-04-02T16:03:27.169Z,90508.91
2023-04-02T16:06:17.178Z,90522.22
2023-04-02T16:09:18.103Z,90523.66
2023-04-02T16:11:47.080Z,90525.16
2023-04-02T16:14:22.741Z,90533.78
2023-04-02T16:16:51.921Z,90529.13
2023-04-02T16:19:32.466Z,90528.84
2023-04-02T16:22:26.130Z,90532.72
2023-04-02T16:25:07.752Z,90535.81
2023-04-02T16:27:51.464Z,90530.31
2023-04-02T16:30:37.269Z,90540.91
2023-04-02T16:33:16.226Z,90543.09
2023-04-02T16:36:21.494Z,90541.72
2023-04-02T16:38:59.346Z,90537.97
2023-04-02T16:41:36.236Z,90546.22
2023-04-02T16:44:31.334Z,90549.00
2023-04-02T16:47:14.234Z,90553.69
2023-04-02T16:49:52.642Z,90556.91
2023-04-02T16:52:41.101Z,90545.41
2023-04-02T16:55:34.882Z,90552.50
2023-04-02T16:58:21.996Z,90552.88
2023-04-02T17:00:56.214Z,90560.53
2023-04-02T17:03:56.382Z,90568.88
2023-04-02T17:06:42.425Z,90564.34
2023-04-02T17:09:16.429Z,90565.25
2023-04-02T17:11:43.149Z,90567.50
2023-04-02T17:14:39.133Z,90529.81
2023-04-02T17:17:05.972Z,90558.25
2023-04-02T17:19:44.788Z,90568.09
2023-04-02T17:22:20.806Z,90578.84
2023-04-02T17:24:57.809Z,90580.84
2023-04-02T17:27:30.306Z,90589.97
2023-04-02T17:30:04.500Z,90590.44
2023-04-02T17:32:33.732Z,90595.34
2023-04-02T17:35:18.100Z,90598.41
2023-04-02T17:38:16.923Z,90604.41
2023-04-02T17:40:54.912Z,90603.41
2023-04-02T17:43:46.175Z,90609.78
2023-04-02T17:46:34.733Z,90612.44
2023-04-02T17:49:44.502Z,90614.78
2023-04-02T17:52:34.894Z,90615.88
2023-04-02T17:55:16.211Z,90619.31
2023-04-02T17:58:01.659Z,90611.81
2023-04-02T18:00:34.803Z,90607.41
2023-04-02T18:03:52.933Z,90623.13
2023-04-02T18:06:31.045Z,90623.13
2023-04-02T18:09:14.741Z,90623.56
2023-04-02T18:11:56.872Z,90629.91
2023-04-02T18:14:38.205Z,90639.00
2023-04-02T18:17:22.796Z,90635.22
2023-04-02T18:19:49.455Z,90619.53
2023-04-02T18:22:53.614Z,90649.13
2023-04-02T18:25:47.472Z,90648.75
2023-04-02T18:28:36.312Z,90652.13
2023-04-02T18:31:28.914Z,90661.09
2023-04-02T18:34:07.763Z,90602.00
2023-04-02T18:36:46.473Z,90660.72
2023-04-02T18:39:46.812Z,90660.72
2023-04-02T18:42:38.661Z,90662.22
2023-04-02T18:45:14.612Z,90684.28
2023-04-02T18:47:53.906Z,90678.69
2023-04-02T18:50:39.387Z,90686.16
2023-04-02T18:53:17.825Z,90682.41
2023-04-02T18:56:04.446Z,90691.00
2023-04-02T18:58:49.454Z,90690.47
2023-04-02T19:01:24.005Z,90695.63
2023-04-02T19:04:01.999Z,90704.66
2023-04-02T19:06:43.967Z,90682.91
2023-04-02T19:09:20.749Z,90717.38
2023-04-02T19:11:49.552Z,90709.94
2023-04-02T19:14:18.423Z,90708.44
2023-04-02T19:17:04.465Z,90682.06
2023-04-02T19:19:45.330Z,90720.94
2023-04-02T19:22:29.585Z,90713.84
2023-04-02T19:25:12.292Z,90721.72
2023-04-02T19:27:53.803Z,90725.44
2023-04-02T19:30:26.611Z,90734.75
2023-04-02T19:32:56.319Z,90726.13
2023-04-02T19:35:37.391Z,90730.97
2023-04-02T19:38:10.010Z,90727.78
2023-04-02T19:40:51.664Z,90727.44
2023-04-02T19:43:18.418Z,90725.94
2023-04-02T19:45:48.434Z,90725.94
2023-04-02T19:48:23.686Z,90725.91
2023-04-02T19:50:50.599Z,90729.88
2023-04-02T19:53:18.547Z,90734.63
2023-04-02T19:55:46.208Z,90735.59
2023-04-02T19:58:35.071Z,90744.53
2023-04-02T20:01:02.756Z,90746.50
2023-04-02T20:03:30.924Z,90740.28
2023-04-02T20:05:59.688Z,90739.19
2023-04-02T20:08:27.771Z,90734.69
2023-04-02T20:10:55.795Z,90739.88
2023-04-02T20:13:22.681Z,90740.63
2023-04-02T20:15:51.851Z,90746.63
2023-04-02T20:18:22.718Z,90736.78
2023-04-02T20:20:49.928Z,90735.72
2023-04-02T20:23:17.906Z,90737.66
2023-04-02T20:25:46.882Z,90738.47
2023-04-02T20:28:14.215Z,90743.38
2023-04-02T20:30:41.377Z,90746.78
2023-04-02T20:33:08.507Z,90744.22
2023-04-02T20:35:35.749Z,90749.34
2023-04-02T20:38:06.464Z,90738.50
2023-04-02T20:40:34.185Z,90740.44
2023-04-02T20:43:01.426Z,90738.34
2023-04-02T20:45:29.383Z,90744.09
2023-04-02T20:47:56.797Z,90743.59
2023-04-02T20:50:23.884Z,90737.97
2023-04-02T20:52:51.762Z,90738.81
2023-04-02T20:55:18.879Z,90741.56
2023-04-02T20:57:45.715Z,90739.00
2023-04-02T21:00:13.647Z,90729.31
2023-04-02T21:02:40.480Z,90727.88
2023-04-02T21:05:07.874Z,90731.09
2023-04-02T21:07:34.610Z,90735.66
2023-04-02T21:10:01.792Z,90736.59
2023-04-02T21:12:31.597Z,90744.41
2023-04-02T21:15:01.753Z,90741.00
2023-04-02T21:17:31.148Z,90746.19
2023-04-02T21:19:57.965Z,90733.91
2023-04-02T21:22:24.717Z,90734.19
2023-04-02T21:24:51.460Z,90740.72
2023-04-02T21:27:18.164Z,90749.38
2023-04-02T21:29:44.899Z,90746.78
2023-04-02T21:32:20.686Z,90747.97
2023-04-02T21:34:48.276Z,90759.16
2023-04-02T21:37:14.993Z,90725.03
2023-04-02T21:39:41.721Z,90752.41
2023-04-02T21:42:08.606Z,90760.03
2023-04-02T21:44:35.282Z,90758.91
2023-04-02T21:47:02.007Z,90762.59
2023-04-02T21:49:29.816Z,90758.91
2023-04-02T21:51:56.703Z,90762.16
2023-04-02T21:54:23.799Z,90766.56
2023-04-02T21:56:50.503Z,90767.53
2023-04-02T21:59:18.251Z,90743.47
2023-04-02T22:01:50.543Z,90778.25
2023-04-02T22:04:20.864Z,90778.81
2023-04-02T22:06:48.127Z,90782.28
2023-04-02T22:09:21.656Z,90775.31
2023-04-02T22:11:51.044Z,90778.84
2023-04-02T22:14:17.931Z,90773.06
2023-04-02T22:16:44.774Z,90759.53
2023-04-02T22:19:14.461Z,90771.66
2023-04-02T22:21:41.938Z,90774.69
2023-04-02T22:24:12.204Z,90773.16
2023-04-02T22:26:40.499Z,90769.63
2023-04-02T22:29:07.965Z,90767.38
2023-04-02T22:31:35.324Z,90764.59
2023-04-02T22:34:03.611Z,90764.09
2023-04-02T22:36:30.861Z,90758.94
2023-04-02T22:38:59.147Z,90763.41
2023-04-02T22:41:28.865Z,90777.81
2023-04-02T22:43:56.988Z,90771.22
2023-04-02T22:46:25.007Z,90774.59
2023-04-02T22:48:55.729Z,90770.72
2023-04-02T22:51:24.439Z,90765.56
2023-04-02T22:53:56.237Z,90763.25
2023-04-02T22:56:31.917Z,90759.47
2023-04-02T22:58:59.361Z,90758.03
2023-04-02T23:01:32.625Z,90754.44
2023-04-02T23:03:59.747Z,90757.59
2023-04-02T23:06:27.301Z,90756.75
2023-04-02T23:08:54.189Z,90755.28
2023-04-02T23:11:23.658Z,90753.19
2023-04-02T23:13:52.415Z,90755.44
2023-04-02T23:16:23.177Z,90749.19
2023-04-02T23:18:50.324Z,90745.38
2023-04-02T23:21:18.185Z,90746.41
2023-04-02T23:23:46.164Z,90745.34
2023-04-02T23:26:19.765Z,90743.19
2023-04-02T23:28:46.524Z,90748.06
2023-04-02T23:31:16.433Z,90746.41
2023-04-02T23:33:43.923Z,90746.16
2023-04-02T23:36:14.880Z,90747.28
2023-04-02T23:38:41.597Z,90742.25
2023-04-02T23:41:08.259Z,90749.22
2023-04-02T23:43:34.999Z,90742.78
2023-04-02T23:46:02.139Z,90737.41
2023-04-02T23:48:28.879Z,90743.13
2023-04-02T23:50:56.260Z,90735.09
2023-04-02T23:53:23.505Z,90733.75
2023-04-02T23:55:50.267Z,90733.28
2023-04-02T23:58:17.046Z,90731.97
